Terminal Aerodrome Forecast
Issued by NWS Springfield, MO

Home | Current Version | Previous Version | Text Only | Print | Product List | Glossary On
Versions: 1 2 3 4 5 6 7 8 9 10 11 12 13 14 15 16 17 18 19 20 21 22 23 24 25 26
005
FTUS43 KSGF 272321
TAFSGF
TAF
KSGF 272321Z 2800/2824 16004KT P6SM BKN100 OVC200
     FM280400 13007KT P6SM VCSH BKN070 OVC100
     FM280900 14012G20KT 6SM -RA OVC070
     FM281400 15013G23KT P6SM VCSH OVC030
     FM281600 17012G21KT P6SM OVC015=

USA.gov is the U.S. government's official web portal to all federal, state and local government web resources and services.